»·PEaware :: N9273T KAVX-KSBA

N9273T :: KAVX-KSBA

FLIGHT INFORMATION

Flight Status: Arrived
Operator: Privately registered:
United States
More flights under this callsign
Pilot: Jim L. (28297)
Aircraft: CESSNA 210 CENTURION
(C210)
More flights by this aircraft type
Origin: KAVX Catalina
United States
Destination: KSBA Santa Barbara Mun
United States
More flights between these airports :: More routes between these airports
Route: SXC V208 VTU VTU282R KWANG
File this flight plan on PilotEdge
Remarks: TEC route CSTP59
Altitude:
(Current/Filed)
6,000ft
Speed:
(Current/Filed)
140kts
Departed: 03-Jul-20 11:40 AM
Arrived: 03-Jul-20 12:21 PM
Distance/Time
Traveled:
94nm/0:41
Distance/Time
To Go:
Arrived

Flight Plot

Page will automatically refresh every two minutes.


Map Options




Map Legend


Flown Route
Filed Route
Departure Airport
Arrival Airport
Navaid (VOR, NDB)
Fix

Horizontal Profiles

Position Reports

Time Latitude Longitude Heading Altitude Ground
Speed
03-Jul-20 11:26 33.403505 -118.415270 252 1605ft 0kts
03-Jul-20 11:27 33.403505 -118.415270 252 1605ft 0kts
03-Jul-20 11:28 33.403505 -118.415270 252 1605ft 0kts
03-Jul-20 11:29 33.403505 -118.415270 252 1605ft 0kts
03-Jul-20 11:30 33.403505 -118.415270 252 1605ft 0kts
03-Jul-20 11:31 33.403505 -118.415270 252 1605ft 0kts
03-Jul-20 11:32 33.403505 -118.415270 252 1605ft 0kts
03-Jul-20 11:33 33.403505 -118.415270 252 1605ft 0kts
03-Jul-20 11:34 33.403505 -118.415270 252 1605ft 0kts
03-Jul-20 11:35 33.403419 -118.415593 253 1605ft 5kts
03-Jul-20 11:36 33.404710 -118.415619 57 1605ft 11kts
03-Jul-20 11:37 33.406747 -118.412179 52 1605ft 13kts
03-Jul-20 11:38 33.407154 -118.411465 53 1605ft 0kts
03-Jul-20 11:39 33.406015 -118.414084 237 1605ft 64kts
03-Jul-20 11:40 33.391833 -118.437229 249 2673ft 91kts
03-Jul-20 11:41 33.400435 -118.463805 322 3729ft 103kts
03-Jul-20 11:42 33.423845 -118.496102 310 4021ft 153kts
03-Jul-20 11:43 33.451226 -118.535702 311 3909ft 154kts
03-Jul-20 11:44 33.479736 -118.572516 315 4359ft 145kts
03-Jul-20 11:45 33.505730 -118.605966 311 5314ft 136kts
03-Jul-20 11:46 33.531750 -118.639973 305 5994ft 148kts
03-Jul-20 11:47 33.557716 -118.681399 307 5995ft 154kts
03-Jul-20 11:48 33.583536 -118.722344 307 5996ft 153kts
03-Jul-20 11:50 33.609230 -118.763082 307 6017ft 152kts
03-Jul-20 11:51 33.636982 -118.801483 314 6023ft 153kts
03-Jul-20 11:52 33.666574 -118.838276 311 6023ft 153kts
03-Jul-20 11:53 33.694060 -118.877437 310 6023ft 153kts
03-Jul-20 11:54 33.721407 -118.916616 310 6023ft 153kts
03-Jul-20 11:55 33.748810 -118.955867 310 6023ft 153kts
03-Jul-20 11:56 33.780445 -118.989897 321 6023ft 153kts
03-Jul-20 11:57 33.813566 -119.022101 321 6023ft 153kts
03-Jul-20 11:58 33.846472 -119.054514 321 6023ft 153kts
03-Jul-20 11:59 33.879364 -119.087006 321 6023ft 153kts
03-Jul-20 12:00 33.912247 -119.119525 320 6023ft 153kts
03-Jul-20 12:01 33.945242 -119.152181 321 6023ft 153kts
03-Jul-20 12:02 33.978099 -119.184747 320 6023ft 153kts
03-Jul-20 12:03 34.010935 -119.217306 321 6023ft 153kts
03-Jul-20 12:04 34.043858 -119.249993 321 6023ft 153kts
03-Jul-20 12:04 34.071228 -119.277195 321 6023ft 153kts
03-Jul-20 12:06 34.109538 -119.315327 320 6024ft 153kts
03-Jul-20 12:07 34.142403 -119.347970 321 6024ft 153kts
03-Jul-20 12:07 34.169946 -119.375336 320 6014ft 153kts
03-Jul-20 12:09 34.208830 -119.414055 321 5182ft 154kts
03-Jul-20 12:09 34.236056 -119.441263 321 4516ft 152kts
03-Jul-20 12:10 34.267748 -119.472968 321 4007ft 134kts
03-Jul-20 12:11 34.293525 -119.498901 320 4011ft 112kts
03-Jul-20 12:12 34.313899 -119.525548 302 4013ft 107kts
03-Jul-20 12:13 34.331053 -119.560334 302 4023ft 141kts
03-Jul-20 12:14 34.352755 -119.603888 302 4015ft 155kts
03-Jul-20 12:15 34.375757 -119.648898 301 3469ft 165kts
03-Jul-20 12:16 34.396035 -119.699314 298 2455ft 165kts
03-Jul-20 12:17 34.418138 -119.747555 298 1524ft 162kts
03-Jul-20 12:18 34.427854 -119.793018 274 673ft 100kts
03-Jul-20 12:19 34.428054 -119.821138 270 255ft 83kts
03-Jul-20 12:20 34.427743 -119.842698 265 17ft 27kts
03-Jul-20 12:21 34.428376 -119.845867 68 17ft 5kts
03-Jul-20 12:22 34.429022 -119.844231 63 17ft 12kts
03-Jul-20 12:23 34.430509 -119.840454 69 17ft 11kts
03-Jul-20 12:24 34.432043 -119.835346 70 17ft 19kts
03-Jul-20 12:25 34.432862 -119.834506 338 17ft 0kts

Navigation Log

Ident Type
Flight plan parsing failed, navigation log unavailable